KNLC/NLC METAR and TAF weather

Enter ICAO airport designator
Station Type Date Time Source
KNLC METAR 2022/07/01 00:56 UTC NOAA

KNLC 010056Z 33011KT 10SM CLR 36/01 A2988 RMK AO2 SLP116 RH/10 T03610006


Station Type Date Time Source
KNLC Decoded METAR 2022/07/01 00:56 UTC NOAA

LEMOORE NAVAL AIR STATION, CA, United States (KNLC) 36-20N 119-57W 72M
Jun 30, 2022 - 08:56 PM EDT / 2022.07.01 0056 UTC
Wind: from the NNW (330 degrees) at 13 MPH (11 KT):0
Visibility: 10 mile(s):0
Sky conditions: clear
Temperature: 97.0 F (36.1 C)
Dew Point: 33.1 F (0.6 C)
Relative Humidity: 10%
Pressure (altimeter): 29.88 in. Hg (1011 hPa)
ob: KNLC 010056Z 33011KT 10SM CLR 36/01 A2988 RMK AO2 SLP116 RH/10 T03610006
cycle: 1

Station Type Date Time Source
KNLC TAF 2022/06/30 23:57 UTC NOAA

TAF KNLC 3023/0123 32008KT 9999 SKC QNH2985INS
FM010300 33012KT 9999 SKC QNH2987INS
FM010600 30007KT 9999 SKC QNH2990INS
FM011700 33010KT 9999 SKC QNH2992INS T14/0113Z T36/0123Z FS30194

Example: see airport list